Relevés horaires Beauvechain (Belgique)


Relevés horaires à Beauvechain - Dimanche 20 Janv. 2019
Heure UTC1 Température [°C] Vent [km/h] Hum. [%] Pres.4 [hPa] Visi. [Km] Nébu. [octa] Préc.5 [mm] Cond.
2m. Res. Ros. Dir.2 Vit. Moy. Raf.3
23:00 -3.3 -3.3 -5.5 NNO 1.9 -- 3.7 85 1023.2(1.6/3h) 10 -- -- --
22:00 -3.7 -3.7 -5.3 NNO 1.9 -- 3.7 89 1022.7(2.0/3h) 7 -- -- --
21:00 -2.7 -2.7 -5.6 ENE 3.7 -- 7.4 80 1022.2(2.1/3h) 12 -- -- --
20:00 -2.4 -2.4 -5.3 NE 3.7 -- 7.4 80 1021.6(2.0/3h) 12 -- -- --
19:00 -1.6 -3.7 -5.3 ENE 5.6 -- 7.4 76 1020.6(2.0/3h) 14 -- -- --
18:00 -1.5 -1.5 -5.0 ENE 3.7 -- 9.3 77 1020(1.8/3h) 15 -- -- --
17:00 -0.6 -2.5 -4.7 ENE 5.6 -- 7.4 74 1019.3(1.5/3h) 18 -- -- --
16:00 0.3 -1.5 -4.7 ENE 5.6 -- 9.3 69 1018.5(0.9/3h) 19 -- -- --
15:00 0.6 -1.2 -4.3 NE 5.6 -- 7.4 70 1018(0.6/3h) 19 -- -- --
14:00 0.3 -1.5 -4.8 NE 5.6 -- 7.4 69 1017.7(0.4/3h) 20 -- -- --
13:00 -0.5 -2.4 -3.9 NNE 5.6 -- 7.4 78 1017.6(0.7/3h) 16 -- -- --
12:00 -0.9 -0.9 -5.1 NE 3.7 -- 7.4 73 1017.3(1.1/3h) 17 -- -- --
11:00 -1.7 -1.7 -4.8 ENE 3.7 -- 5.6 79 1017.3(1.8/3h) 15 -- -- --
10:00 -2.7 -2.7 -5.1 NE 3.7 -- 5.6 83 1017(2.1/3h) 14 -- -- --
09:00 -3.3 -3.3 -5.9 NNO 1.9 -- 7.4 82 1016.3(1.9/3h) 13 -- -- --
08:00 -4.5 -4.5 -6.5 NNO 1.9 -- 7.4 86 1015.7(1.5/3h) 13 -- -- --
07:00 -3.9 -6.3 -6.6 E 5.6 -- 7.4 81 1014.8(0.8/3h) 16 -- -- --
06:00 -3.8 -3.8 -6.2 NNO 1.9 -- 7.4 83 1014.3(0.3/3h) 17 -- -- --
05:00 -3.7 -3.7 -5.9 E 3.7 -- 7.4 85 1014.1(0.1/3h) 16 -- -- --
04:00 -3.6 -3.6 -5.8 E 3.7 -- 5.6 85 1013.8(0.1/3h) 17 -- -- --
03:00 -3.4 -3.4 -5.7 E 3.7 -- 7.4 84 1014(0.2/3h) 18 -- -- --
02:00 -3.3 -3.3 -5.5 E 3.7 -- 5.6 85 1013.8(0.2/3h) 19 -- -- --
01:00 -3.1 -3.1 -5.3 E 3.7 -- 5.6 85 1013.7(0.2/3h) 19 -- -- --
00:00 -2.8 -2.8 -4.9 ENE 3.7 -- 7.4 85 1013.7(0.4/3h) 19 -- -- --

1 Coordinated Universal Time. Actuellement il est 08:00 locale et 07:00 UTC.

2 Le vent souffle depuis la direction indiquée vers la direction oposée.

3 Les rafales max. sont disponible 40 min après l'heure du relevé.

4 Pour les stations d'altitude (plus de 600m) le géopotentiel du niveau le plus proche de la pression obligatoire est indiqué.

5 Les stations disposant d'un diffuseur peuvent indiquer "trace". Cela signifie que des précipitations ont touchés le sol mais que la quantité est inférieure à 0.1 mm.

Récapitulatif de la journée
Température [°C] Vent [km/h] Ensoleillement4 [h] Precipitations totale5 [mm] Pression [Hpa]
Min1 Max.2 Moy.3 Max. Min Max.
-3.8 0.9 0 9.3 0 h 0 min 0 1013.7 1023.2

1 Température minimale relevée entre 18:00 UTC la veille et 18:00 UTC le jour donné.

2 Température maximale relevée entre 06:00 UTC le jour donné et 06:00 UTC le lendemain.

3 Vent moyen de la journée basé sur les relevés horaires.

4 Ensoleillement en heures relevé entre 06:00 UTC la veille et 06:00 UTC le jour donné.

5 Précipitations totales tombées entre 06:00 UTC la jour donné et 06:00 UTC le lendemain.

Graphiques horaires